createdAt,value
2018-12-22T00:02:20.816Z,99525.88
2018-12-22T00:04:48.938Z,99515.70
2018-12-22T00:07:17.036Z,99520.78
2018-12-22T00:09:45.162Z,99517.89
2018-12-22T00:12:13.357Z,99516.62
2018-12-22T00:14:41.477Z,99520.98
2018-12-22T00:17:09.587Z,99529.91
2018-12-22T00:19:37.698Z,99528.66
2018-12-22T00:22:05.836Z,99526.30
2018-12-22T00:24:33.960Z,99530.45
2018-12-22T00:27:02.090Z,99521.61
2018-12-22T00:29:30.219Z,99529.48
2018-12-22T00:31:58.328Z,99531.31
2018-12-22T00:34:26.470Z,99526.56
2018-12-22T00:36:54.600Z,99540.45
2018-12-22T00:39:22.826Z,99535.64
2018-12-22T00:41:50.953Z,99548.53
2018-12-22T00:44:19.068Z,99545.70
2018-12-22T00:46:47.183Z,99538.39
2018-12-22T00:49:15.293Z,99540.72
2018-12-22T00:51:43.408Z,99547.00
2018-12-22T00:54:11.522Z,99543.67
2018-12-22T00:56:39.650Z,99543.37
2018-12-22T00:59:07.778Z,99545.20
2018-12-22T01:01:35.886Z,99546.73
2018-12-22T01:04:04.001Z,99560.03
2018-12-22T01:06:32.110Z,99547.56
2018-12-22T01:09:00.235Z,99548.06
2018-12-22T01:11:28.345Z,99557.41
2018-12-22T01:13:56.459Z,99561.59
2018-12-22T01:16:24.568Z,99557.17
2018-12-22T01:18:52.682Z,99561.03
2018-12-22T01:21:20.787Z,99560.86
2018-12-22T01:23:48.909Z,99560.16
2018-12-22T01:26:17.018Z,99563.23
2018-12-22T01:28:45.133Z,99563.32
2018-12-22T01:31:13.238Z,99555.67
2018-12-22T01:33:41.351Z,99559.00
2018-12-22T01:36:09.462Z,99563.95
2018-12-22T01:38:37.576Z,99571.43
2018-12-22T01:41:05.672Z,99572.80
2018-12-22T01:43:33.794Z,99559.83
2018-12-22T01:46:01.916Z,99557.50
2018-12-22T01:48:30.050Z,99555.27
2018-12-22T01:50:58.157Z,99559.59
2018-12-22T01:53:26.268Z,99565.84
2018-12-22T01:55:54.387Z,99557.86
2018-12-22T01:58:22.502Z,99558.56
2018-12-22T02:00:50.638Z,99565.70
2018-12-22T02:03:18.748Z,99558.80
2018-12-22T02:05:46.950Z,99566.61
2018-12-22T02:08:15.098Z,99553.30
2018-12-22T02:10:43.219Z,99557.36
2018-12-22T02:13:11.349Z,99569.10
2018-12-22T02:15:39.462Z,99560.63
2018-12-22T02:18:07.576Z,99566.61
2018-12-22T02:20:35.703Z,99559.27
2018-12-22T02:23:03.810Z,99548.48
2018-12-22T02:25:31.933Z,99549.81
2018-12-22T02:28:00.040Z,99547.22
2018-12-22T02:30:28.161Z,99553.53
2018-12-22T02:32:56.262Z,99559.58
2018-12-22T02:35:24.373Z,99537.41
2018-12-22T02:37:52.481Z,99535.94
2018-12-22T02:40:20.606Z,99525.20
2018-12-22T02:42:48.717Z,99514.37
2018-12-22T02:45:16.843Z,99519.36
2018-12-22T02:47:44.959Z,99520.48
2018-12-22T02:50:13.079Z,99520.19
2018-12-22T02:52:41.191Z,99519.85
2018-12-22T02:55:09.309Z,99524.34
2018-12-22T02:57:37.414Z,99511.58
2018-12-22T03:00:10.368Z,99504.47
2018-12-22T03:02:38.473Z,99499.88
2018-12-22T03:05:06.586Z,99493.73
2018-12-22T03:07:34.696Z,99489.14
2018-12-22T03:10:02.883Z,99483.22
2018-12-22T03:12:30.991Z,99480.10
2018-12-22T03:14:59.114Z,99475.58
2018-12-22T03:17:27.222Z,99489.58
2018-12-22T03:19:55.355Z,99493.14
2018-12-22T03:22:23.466Z,99490.98
2018-12-22T03:24:51.692Z,99491.95
2018-12-22T03:27:19.809Z,99486.43
2018-12-22T03:29:47.923Z,99505.52
2018-12-22T03:32:16.026Z,99492.92
2018-12-22T03:34:44.159Z,99488.44
2018-12-22T03:37:12.270Z,99491.76
2018-12-22T03:39:40.402Z,99474.02
2018-12-22T03:42:08.528Z,99483.16
2018-12-22T03:47:10.937Z,99489.08
2018-12-22T03:49:39.055Z,99494.91
2018-12-22T03:52:07.169Z,99500.39
2018-12-22T03:54:35.294Z,99492.91
2018-12-22T03:57:03.391Z,99502.09
2018-12-22T03:59:31.530Z,99508.73
2018-12-22T04:01:59.638Z,99513.55
2018-12-22T04:04:27.774Z,99506.41
2018-12-22T04:06:56.057Z,99504.05
2018-12-22T04:09:24.325Z,99517.04
2018-12-22T04:11:52.434Z,99519.20
2018-12-22T04:14:20.566Z,99519.86
2018-12-22T04:16:48.792Z,99523.48
2018-12-22T04:19:16.898Z,99520.86
2018-12-22T04:21:45.027Z,99522.89
2018-12-22T04:24:13.137Z,99528.84
2018-12-22T04:26:41.263Z,99520.47
2018-12-22T04:29:09.368Z,99522.23
2018-12-22T04:31:37.488Z,99514.05
2018-12-22T04:34:05.601Z,99508.07
2018-12-22T04:36:33.719Z,99518.33
2018-12-22T04:39:01.938Z,99521.98
2018-12-22T04:41:30.091Z,99504.73
2018-12-22T04:43:58.210Z,99505.03
2018-12-22T04:46:26.330Z,99517.16
2018-12-22T04:48:54.430Z,99517.53
2018-12-22T04:51:22.556Z,99512.45
2018-12-22T04:53:50.658Z,99497.33
2018-12-22T04:56:18.786Z,99502.51
2018-12-22T04:58:46.892Z,99507.46
2018-12-22T05:01:15.017Z,99509.03
2018-12-22T05:03:43.120Z,99519.33
2018-12-22T05:06:11.243Z,99519.91
2018-12-22T05:08:39.348Z,99515.55
2018-12-22T05:11:07.474Z,99508.80
2018-12-22T05:13:35.587Z,99515.38
2018-12-22T05:16:03.725Z,99514.88
2018-12-22T05:18:31.821Z,99511.59
2018-12-22T05:20:59.935Z,99508.27
2018-12-22T05:23:28.054Z,99518.20
2018-12-22T05:25:56.178Z,99527.02
2018-12-22T05:28:24.305Z,99524.59
2018-12-22T05:30:52.429Z,99539.45
2018-12-22T05:33:20.534Z,99542.67
2018-12-22T05:35:48.664Z,99539.95
2018-12-22T05:38:16.785Z,99549.30
2018-12-22T05:40:44.907Z,99551.32
2018-12-22T05:43:13.017Z,99553.34
2018-12-22T05:45:41.143Z,99562.61
2018-12-22T05:48:09.243Z,99558.36
2018-12-22T05:50:37.365Z,99564.98
2018-12-22T05:53:05.478Z,99570.22
2018-12-22T05:55:33.604Z,99585.75
2018-12-22T05:58:01.718Z,99583.75
2018-12-22T06:00:29.827Z,99577.23
2018-12-22T06:02:57.932Z,99590.30
2018-12-22T06:05:26.058Z,99583.95
2018-12-22T06:07:54.169Z,99572.61
2018-12-22T06:10:22.298Z,99568.53
2018-12-22T06:12:50.408Z,99576.64
2018-12-22T06:15:18.536Z,99577.84
2018-12-22T06:17:46.644Z,99572.78
2018-12-22T06:20:14.769Z,99577.90
2018-12-22T06:22:42.874Z,99562.14
2018-12-22T06:25:10.995Z,99577.07
2018-12-22T06:27:39.116Z,99583.75
2018-12-22T06:30:09.438Z,99579.63
2018-12-22T06:32:37.389Z,99579.70
2018-12-22T06:35:05.585Z,99574.71
2018-12-22T06:37:33.699Z,99599.27
2018-12-22T06:40:01.809Z,99600.77
2018-12-22T06:42:30.045Z,99609.17
2018-12-22T06:44:58.149Z,99612.59
2018-12-22T06:47:26.289Z,99613.13
2018-12-22T06:49:54.419Z,99604.69
2018-12-22T06:52:22.545Z,99610.14
2018-12-22T06:54:50.662Z,99626.83
2018-12-22T06:57:18.780Z,99624.96
2018-12-22T06:59:46.895Z,99628.98
2018-12-22T07:02:15.010Z,99640.02
2018-12-22T07:04:43.116Z,99641.38
2018-12-22T07:07:11.242Z,99647.70
2018-12-22T07:09:39.357Z,99656.01
2018-12-22T07:12:07.486Z,99652.16
2018-12-22T07:14:35.601Z,99659.03
2018-12-22T07:17:03.727Z,99654.61
2018-12-22T07:19:31.834Z,99669.07
2018-12-22T07:21:59.966Z,99666.18
2018-12-22T07:24:28.080Z,99665.02
2018-12-22T07:26:56.201Z,99657.00
2018-12-22T07:29:24.317Z,99673.45
2018-12-22T07:31:52.444Z,99675.08
2018-12-22T07:34:20.553Z,99697.95
2018-12-22T07:36:48.696Z,99682.49
2018-12-22T07:39:16.802Z,99690.01
2018-12-22T07:41:44.907Z,99697.26
2018-12-22T07:44:13.014Z,99692.03
2018-12-22T07:46:41.141Z,99691.70
2018-12-22T07:49:09.251Z,99691.94
2018-12-22T07:51:37.388Z,99695.23
2018-12-22T07:54:05.486Z,99705.89
2018-12-22T07:56:33.604Z,99723.19
2018-12-22T07:59:01.714Z,99729.83
2018-12-22T08:01:29.835Z,99726.84
2018-12-22T08:03:57.941Z,99740.59
2018-12-22T08:06:26.062Z,99745.78
2018-12-22T08:08:54.182Z,99752.23
2018-12-22T08:11:22.331Z,99754.98
2018-12-22T08:13:50.443Z,99755.92
2018-12-22T08:16:18.561Z,99754.48
2018-12-22T08:18:46.680Z,99764.56
2018-12-22T08:21:14.835Z,99766.39
2018-12-22T08:23:42.950Z,99784.27
2018-12-22T08:26:11.075Z,99784.34
2018-12-22T08:28:39.191Z,99783.20
2018-12-22T08:31:07.315Z,99793.52
2018-12-22T08:33:35.420Z,99818.91
2018-12-22T08:36:03.541Z,99831.41
2018-12-22T08:38:31.756Z,99828.72
2018-12-22T08:40:59.907Z,99846.06
2018-12-22T08:43:28.010Z,99836.69
2018-12-22T08:45:56.155Z,99837.31
2018-12-22T08:48:24.282Z,99846.50
2018-12-22T08:50:52.395Z,99845.44
2018-12-22T08:53:20.505Z,99856.64
2018-12-22T08:55:48.624Z,99857.63
2018-12-22T08:58:16.751Z,99861.75
2018-12-22T09:00:52.166Z,99867.67
2018-12-22T09:03:15.006Z,99870.99
2018-12-22T09:05:43.108Z,99869.03
2018-12-22T09:08:11.234Z,99883.48
2018-12-22T09:10:39.343Z,99896.95
2018-12-22T09:13:07.468Z,99898.48
2018-12-22T09:15:35.586Z,99903.06
2018-12-22T09:18:03.719Z,99913.00
2018-12-22T09:20:31.910Z,99915.36
2018-12-22T09:23:00.095Z,99911.06
2018-12-22T09:25:28.200Z,99920.11
2018-12-22T09:27:56.341Z,99914.03
2018-12-22T09:30:24.447Z,99922.03
2018-12-22T09:32:52.560Z,99928.35
2018-12-22T09:35:20.682Z,99925.36
2018-12-22T09:37:48.803Z,99932.37
2018-12-22T09:40:16.909Z,99941.71
2018-12-22T09:42:45.041Z,99944.77
2018-12-22T09:45:13.162Z,99953.07
2018-12-22T09:47:41.420Z,99943.46
2018-12-22T09:50:10.700Z,99956.56
2018-12-22T09:52:38.821Z,99955.46
2018-12-22T09:55:06.960Z,99960.14
2018-12-22T09:57:35.072Z,99958.36
2018-12-22T10:00:03.390Z,99981.92
2018-12-22T10:02:31.514Z,99973.15
2018-12-22T10:04:59.644Z,99986.95
2018-12-22T10:07:27.782Z,99979.27
2018-12-22T10:09:55.903Z,99989.05
2018-12-22T10:12:24.051Z,99987.84
2018-12-22T10:14:52.166Z,99983.72
2018-12-22T10:17:20.285Z,99980.08
2018-12-22T10:19:48.406Z,99977.45
2018-12-22T10:22:16.528Z,99984.66
2018-12-22T10:24:44.641Z,100001.05
2018-12-22T10:27:12.766Z,99989.56
2018-12-22T10:29:40.884Z,99998.20
2018-12-22T10:32:09.024Z,100004.71
2018-12-22T10:34:37.244Z,100006.31
2018-12-22T10:37:05.385Z,100010.58
2018-12-22T10:39:33.515Z,100013.39
2018-12-22T10:42:01.637Z,100013.27
2018-12-22T10:44:29.762Z,100017.52
2018-12-22T10:46:57.891Z,100007.35
2018-12-22T10:49:26.000Z,100020.09
2018-12-22T10:51:54.127Z,100025.58
2018-12-22T10:54:22.248Z,100013.91
2018-12-22T10:56:50.370Z,100019.76
2018-12-22T10:59:18.488Z,100026.94
2018-12-22T11:01:46.599Z,100017.93
2018-12-22T11:04:14.718Z,100020.92
2018-12-22T11:06:42.831Z,100011.55
2018-12-22T11:09:11.045Z,100011.36
2018-12-22T11:11:39.158Z,100003.25
2018-12-22T11:14:07.296Z,100006.97
2018-12-22T11:16:35.409Z,100003.65
2018-12-22T11:19:03.529Z,100014.69
2018-12-22T11:21:31.655Z,100013.84
2018-12-22T11:23:59.778Z,100012.75
2018-12-22T11:26:27.886Z,100007.56
2018-12-22T11:28:56.001Z,100011.05
2018-12-22T11:31:24.110Z,100013.25
2018-12-22T11:33:52.244Z,100016.77
2018-12-22T11:36:20.354Z,100026.91
2018-12-22T11:38:48.471Z,100023.11
2018-12-22T11:41:16.599Z,100023.77
2018-12-22T11:43:44.717Z,100028.09
2018-12-22T11:46:12.829Z,100019.52
2018-12-22T11:48:42.594Z,100024.74
2018-12-22T11:51:10.712Z,100027.37
2018-12-22T11:53:38.837Z,100030.34
2018-12-22T11:56:06.977Z,100030.58
2018-12-22T11:58:35.124Z,100040.48
2018-12-22T12:01:03.254Z,100038.86
2018-12-22T12:03:31.375Z,100042.15
2018-12-22T12:05:59.481Z,100047.14
2018-12-22T12:08:27.610Z,100048.50
2018-12-22T12:10:55.734Z,100064.92
2018-12-22T12:13:23.852Z,100074.09
2018-12-22T12:15:52.043Z,100075.89
2018-12-22T12:18:33.374Z,100078.06
2018-12-22T12:21:01.488Z,100078.38
2018-12-22T12:23:29.611Z,100074.64
2018-12-22T12:25:57.729Z,100077.63
2018-12-22T12:28:25.831Z,100089.93
2018-12-22T12:30:53.940Z,100075.70
2018-12-22T12:33:22.058Z,100083.11
2018-12-22T12:35:50.170Z,100088.10
2018-12-22T12:38:18.285Z,100085.00
2018-12-22T12:40:46.430Z,100086.80
2018-12-22T12:43:14.567Z,100079.35
2018-12-22T12:45:42.683Z,100088.63
2018-12-22T12:48:10.837Z,100099.83
2018-12-22T12:50:41.994Z,100112.80
2018-12-22T12:53:10.975Z,100102.11
2018-12-22T12:55:39.093Z,100102.58
2018-12-22T12:58:15.254Z,100097.92
2018-12-22T13:00:43.523Z,100110.94
2018-12-22T13:03:11.638Z,100110.37
2018-12-22T13:05:39.760Z,100116.44
2018-12-22T13:08:07.878Z,100124.53
2018-12-22T13:10:36.009Z,100122.56
2018-12-22T13:13:18.813Z,100126.28
2018-12-22T13:15:46.969Z,100134.77
2018-12-22T13:18:15.084Z,100142.24
2018-12-22T13:20:43.233Z,100155.32
2018-12-22T13:23:11.343Z,100160.47
2018-12-22T13:25:39.456Z,100160.56
2018-12-22T13:28:07.586Z,100163.58
2018-12-22T13:30:35.712Z,100170.67
2018-12-22T13:33:03.893Z,100174.49
2018-12-22T13:35:32.094Z,100174.94
2018-12-22T13:38:00.196Z,100171.59
2018-12-22T13:40:28.318Z,100177.07
2018-12-22T13:42:56.449Z,100186.58
2018-12-22T13:45:24.578Z,100186.21
2018-12-22T13:47:52.881Z,100192.86
2018-12-22T13:50:21.637Z,100193.05
2018-12-22T13:52:49.937Z,100197.87
2018-12-22T13:55:18.930Z,100193.05
2018-12-22T13:57:47.063Z,100206.65
2018-12-22T14:00:22.815Z,100214.23
2018-12-22T14:02:50.931Z,100208.67
2018-12-22T14:05:28.064Z,100205.05
2018-12-22T14:07:56.174Z,100205.52
2018-12-22T14:10:24.371Z,100199.06
2018-12-22T14:12:52.526Z,100201.75
2018-12-22T14:15:24.519Z,100204.88
2018-12-22T14:18:03.105Z,100203.00
2018-12-22T14:20:33.563Z,100215.95
2018-12-22T14:23:01.680Z,100216.09
2018-12-22T14:25:29.884Z,100206.10
2018-12-22T14:27:58.011Z,100211.94
2018-12-22T14:30:26.138Z,100217.70
2018-12-22T14:32:54.262Z,100218.50
2018-12-22T14:35:28.329Z,100225.53
2018-12-22T14:37:56.441Z,100232.59
2018-12-22T14:40:24.582Z,100240.87
2018-12-22T14:42:52.722Z,100236.14
2018-12-22T14:45:20.849Z,100242.09
2018-12-22T14:47:48.962Z,100243.42
2018-12-22T14:50:17.081Z,100247.59
2018-12-22T14:52:45.201Z,100253.39
2018-12-22T14:55:13.317Z,100257.43
2018-12-22T14:57:50.247Z,100265.77
2018-12-22T15:00:18.384Z,100276.56
2018-12-22T15:02:46.499Z,100272.66
2018-12-22T15:05:14.623Z,100273.48
2018-12-22T15:07:42.737Z,100276.31
2018-12-22T15:10:11.041Z,100277.09
2018-12-22T15:12:39.232Z,100272.62
2018-12-22T15:15:12.029Z,100280.91
2018-12-22T15:17:42.607Z,100276.30
2018-12-22T15:20:25.073Z,100282.70
2018-12-22T15:22:53.182Z,100290.59
2018-12-22T15:25:21.371Z,100288.26
2018-12-22T15:27:49.482Z,100282.14
2018-12-22T15:30:17.606Z,100292.13
2018-12-22T15:32:54.185Z,100285.08
2018-12-22T15:35:15.869Z,100289.17
2018-12-22T15:37:44.002Z,100301.55
2018-12-22T15:40:12.117Z,100303.31
2018-12-22T15:42:40.238Z,100316.99
2018-12-22T15:45:16.096Z,100304.09
2018-12-22T15:47:45.562Z,100304.08
2018-12-22T15:50:21.371Z,100305.16
2018-12-22T15:52:49.500Z,100310.49
2018-12-22T15:55:18.138Z,100313.32
2018-12-22T15:57:46.270Z,100313.82
2018-12-22T16:00:14.391Z,100320.91
2018-12-22T16:02:42.539Z,100329.30
2018-12-22T16:05:11.735Z,100333.09
2018-12-22T16:07:42.325Z,100328.77
2018-12-22T16:10:15.685Z,100331.91
2018-12-22T16:12:43.805Z,100333.45
2018-12-22T16:15:20.966Z,100335.08
2018-12-22T16:17:49.098Z,100334.08
2018-12-22T16:20:17.213Z,100336.38
2018-12-22T16:22:52.543Z,100333.22
2018-12-22T16:25:20.665Z,100331.75
2018-12-22T16:27:48.813Z,100341.05
2018-12-22T16:30:23.116Z,100338.88
2018-12-22T16:32:51.249Z,100340.72
2018-12-22T16:35:19.387Z,100343.36
2018-12-22T16:37:47.520Z,100345.37
2018-12-22T16:40:15.635Z,100349.45
2018-12-22T16:42:43.765Z,100350.36
2018-12-22T16:45:16.150Z,100350.16
2018-12-22T16:47:44.452Z,100351.84
2018-12-22T16:50:16.080Z,100350.52
2018-12-22T16:52:44.210Z,100346.44
2018-12-22T16:55:15.592Z,100351.56
2018-12-22T16:58:06.422Z,100346.21
2018-12-22T17:03:35.422Z,100360.33
2018-12-22T17:06:07.072Z,100355.98
2018-12-22T17:08:35.197Z,100357.77
2018-12-22T17:11:03.590Z,100353.16
2018-12-22T17:13:31.704Z,100354.89
2018-12-22T17:15:59.825Z,100356.52
2018-12-22T17:18:28.024Z,100367.59
2018-12-22T17:21:02.815Z,100371.08
2018-12-22T17:23:43.006Z,100368.59
2018-12-22T17:26:11.251Z,100371.52
2018-12-22T17:28:39.381Z,100376.83
2018-12-22T17:31:07.579Z,100377.22
2018-12-22T17:33:36.396Z,100374.75
2018-12-22T17:36:05.009Z,100388.84
2018-12-22T17:38:33.128Z,100387.48
2018-12-22T17:41:01.250Z,100390.78
2018-12-22T17:43:29.519Z,100393.22
2018-12-22T17:45:57.629Z,100394.38
2018-12-22T17:48:25.757Z,100397.48
2018-12-22T17:50:53.873Z,100398.31
2018-12-22T17:53:23.308Z,100405.77
2018-12-22T17:55:51.635Z,100422.73
2018-12-22T17:58:19.766Z,100420.07
2018-12-22T18:00:47.887Z,100423.23
2018-12-22T18:03:16.005Z,100423.23
2018-12-22T18:05:44.112Z,100424.38
2018-12-22T18:08:12.224Z,100425.86
2018-12-22T18:10:40.324Z,100426.50
2018-12-22T18:13:08.454Z,100429.04
2018-12-22T18:15:36.563Z,100424.70
2018-12-22T18:18:04.705Z,100432.84
2018-12-22T18:20:32.818Z,100433.78
2018-12-22T18:23:00.936Z,100436.11
2018-12-22T18:25:29.077Z,100437.43
2018-12-22T18:27:57.183Z,100442.91
2018-12-22T18:30:25.300Z,100451.28
2018-12-22T18:32:53.411Z,100447.15
2018-12-22T18:35:21.522Z,100446.13
2018-12-22T18:37:49.647Z,100444.47
2018-12-22T18:40:21.999Z,100444.30
2018-12-22T18:42:50.150Z,100441.48
2018-12-22T18:45:19.115Z,100443.36
2018-12-22T18:47:47.240Z,100450.86
2018-12-22T18:50:21.510Z,100456.95
2018-12-22T18:52:49.627Z,100459.84
2018-12-22T18:55:18.365Z,100462.20
2018-12-22T18:57:49.821Z,100466.27
2018-12-22T19:00:22.536Z,100466.21
2018-12-22T19:02:51.310Z,100468.11
2018-12-22T19:05:20.286Z,100472.38
2018-12-22T19:07:48.652Z,100467.83
2018-12-22T19:10:24.826Z,100480.14
2018-12-22T19:12:52.931Z,100478.38
2018-12-22T19:15:21.054Z,100479.88
2018-12-22T19:17:49.167Z,100482.38
2018-12-22T19:20:25.723Z,100488.35
2018-12-22T19:22:53.830Z,100486.55
2018-12-22T19:25:21.949Z,100480.77
2018-12-22T19:27:50.065Z,100488.40
2018-12-22T19:30:18.370Z,100487.77
2018-12-22T19:32:46.497Z,100495.33
2018-12-22T19:35:14.620Z,100494.37
2018-12-22T19:37:42.724Z,100499.95
2018-12-22T19:40:10.849Z,100503.48
2018-12-22T19:42:38.958Z,100503.98
2018-12-22T19:45:07.668Z,100506.72
2018-12-22T19:47:35.801Z,100514.11
2018-12-22T19:50:06.690Z,100510.67
2018-12-22T19:52:34.805Z,100512.20
2018-12-22T19:55:02.931Z,100521.48
2018-12-22T19:57:31.040Z,100524.95
2018-12-22T19:59:59.171Z,100516.70
2018-12-22T20:02:27.299Z,100517.58
2018-12-22T20:04:56.882Z,100519.31
2018-12-22T20:07:25.540Z,100520.83
2018-12-22T20:09:53.661Z,100516.84
2018-12-22T20:12:21.766Z,100520.80
2018-12-22T20:14:49.890Z,100523.48
2018-12-22T20:17:18.016Z,100522.48
2018-12-22T20:19:46.126Z,100524.01
2018-12-22T20:22:14.261Z,100527.42
2018-12-22T20:24:42.490Z,100533.56
2018-12-22T20:27:10.632Z,100535.16
2018-12-22T20:29:38.741Z,100537.31
2018-12-22T20:32:06.867Z,100541.77
2018-12-22T20:34:34.989Z,100538.14
2018-12-22T20:37:03.093Z,100524.53
2018-12-22T20:39:31.210Z,100518.45
2018-12-22T20:41:59.343Z,100514.91
2018-12-22T20:44:27.457Z,100522.06
2018-12-22T20:46:55.557Z,100527.73
2018-12-22T20:49:23.676Z,100537.50
2018-12-22T20:51:51.781Z,100540.33
2018-12-22T20:54:19.907Z,100529.08
2018-12-22T20:56:48.056Z,100534.28
2018-12-22T20:59:16.191Z,100538.28
2018-12-22T21:01:44.309Z,100546.27
2018-12-22T21:04:19.870Z,100550.75
2018-12-22T21:06:42.616Z,100549.76
2018-12-22T21:09:10.725Z,100555.91
2018-12-22T21:11:38.849Z,100560.88
2018-12-22T21:14:06.968Z,100558.91
2018-12-22T21:16:35.100Z,100563.61
2018-12-22T21:19:03.224Z,100559.94
2018-12-22T21:21:31.341Z,100563.78
2018-12-22T21:23:59.446Z,100564.62
2018-12-22T21:26:27.569Z,100563.66
2018-12-22T21:28:55.685Z,100558.08
2018-12-22T21:31:23.808Z,100567.00
2018-12-22T21:33:51.921Z,100573.69
2018-12-22T21:36:20.062Z,100571.95
2018-12-22T21:38:48.185Z,100586.59
2018-12-22T21:41:16.304Z,100593.88
2018-12-22T21:43:44.439Z,100591.41
2018-12-22T21:46:12.553Z,100596.40
2018-12-22T21:48:40.661Z,100609.81
2018-12-22T21:51:08.776Z,100606.66
2018-12-22T21:53:36.893Z,100600.05
2018-12-22T21:56:05.012Z,100602.53
2018-12-22T21:58:33.113Z,100596.59
2018-12-22T22:01:01.234Z,100594.62
2018-12-22T22:03:29.344Z,100597.44
2018-12-22T22:05:57.468Z,100605.38
2018-12-22T22:08:25.580Z,100596.97
2018-12-22T22:10:53.703Z,100606.82
2018-12-22T22:13:21.848Z,100605.05
2018-12-22T22:15:49.980Z,100607.55
2018-12-22T22:18:18.110Z,100609.30
2018-12-22T22:20:46.223Z,100620.28
2018-12-22T22:23:18.948Z,100620.52
2018-12-22T22:25:44.475Z,100622.64
2018-12-22T22:28:12.588Z,100622.00
2018-12-22T22:30:40.712Z,100624.28
2018-12-22T22:33:08.817Z,100626.28
2018-12-22T22:35:36.941Z,100630.86
2018-12-22T22:38:05.067Z,100631.27
2018-12-22T22:40:33.180Z,100631.17
2018-12-22T22:43:01.304Z,100639.48
2018-12-22T22:45:29.416Z,100637.77
2018-12-22T22:47:57.581Z,100640.28
2018-12-22T22:50:25.790Z,100633.92
2018-12-22T22:52:53.917Z,100635.09
2018-12-22T22:55:22.046Z,100632.97
2018-12-22T22:57:50.160Z,100641.12
2018-12-22T23:00:22.825Z,100644.65
2018-12-22T23:02:50.956Z,100637.91
2018-12-22T23:05:19.069Z,100649.00
2018-12-22T23:07:47.177Z,100652.22
2018-12-22T23:10:15.283Z,100642.64
2018-12-22T23:12:43.396Z,100640.37
2018-12-22T23:15:11.503Z,100652.84
2018-12-22T23:17:39.646Z,100657.09
2018-12-22T23:20:07.764Z,100665.03
2018-12-22T23:22:35.878Z,100659.95
2018-12-22T23:25:04.922Z,100656.17
2018-12-22T23:27:33.051Z,100649.72
2018-12-22T23:30:01.155Z,100648.73
2018-12-22T23:32:29.281Z,100649.71
2018-12-22T23:35:02.998Z,100657.16
2018-12-22T23:37:27.536Z,100666.02
2018-12-22T23:39:55.644Z,100667.86
2018-12-22T23:42:23.772Z,100664.97
2018-12-22T23:44:51.880Z,100664.17
2018-12-22T23:47:19.997Z,100667.34
2018-12-22T23:49:48.099Z,100669.17
2018-12-22T23:52:16.224Z,100669.88
2018-12-22T23:54:44.330Z,100680.03
2018-12-22T23:57:12.436Z,100683.02
2018-12-22T23:59:40.549Z,100691.64
